Time;durP1;ratioP1;P1;durP2;ratioP2;P2;SDS_P1;SDS_P2;PMS_P1;PMS_P2;Temp;Humidity;BMP_temperature;BMP_pressure;BME280_temperature;BME280_humidity;BME280_pressure;Samples;Min_cycle;Max_cycle;Signal;HPM_P1;HPM_P2
2022/12/20 00:01:59;;;;;;;23.55;14.55;;;;;;;4.97;100.00;101135.22;4981147;28;20672;-48
2022/12/20 00:04:24;;;;;;;19.00;14.23;;;;;;;4.93;100.00;101128.16;4983010;28;20569;-46
2022/12/20 00:06:50;;;;;;;16.02;14.32;;;;;;;4.98;100.00;101126.34;4979497;28;20174;-44
2022/12/20 00:09:15;;;;;;;18.70;14.65;;;;;;;4.93;100.00;101118.44;4978430;28;20178;-43
2022/12/20 00:11:41;;;;;;;16.35;13.38;;;;;;;4.94;100.00;101120.19;4981127;28;20633;-44
2022/12/20 00:14:08;;;;;;;16.58;14.30;;;;;;;5.02;100.00;101117.44;4980049;28;20237;-44
2022/12/20 00:16:35;;;;;;;18.42;14.65;;;;;;;5.02;100.00;101127.19;4972758;28;20174;-43
2022/12/20 00:19:02;;;;;;;17.65;14.13;;;;;;;5.10;100.00;101117.38;4978127;28;20198;-43
2022/12/20 00:21:29;;;;;;;18.63;14.23;;;;;;;5.09;100.00;101105.84;4980549;28;20209;-42
2022/12/20 00:23:55;;;;;;;17.02;13.85;;;;;;;5.05;100.00;101111.22;4977708;28;20177;-42
2022/12/20 00:26:24;;;;;;;16.23;14.10;;;;;;;5.09;100.00;101104.97;4979483;28;20687;-44
2022/12/20 00:28:50;;;;;;;17.08;13.57;;;;;;;5.10;100.00;101107.63;4979203;28;20604;-41
2022/12/20 00:31:18;;;;;;;16.23;14.15;;;;;;;5.09;100.00;101102.31;4973610;28;20213;-42
2022/12/20 00:33:45;;;;;;;16.15;12.82;;;;;;;5.14;100.00;101096.06;4983324;28;20267;-42
2022/12/20 00:36:11;;;;;;;16.65;13.88;;;;;;;5.14;100.00;101100.53;4980127;28;20185;-41
2022/12/20 00:38:36;;;;;;;19.45;13.15;;;;;;;5.11;100.00;101093.44;4985969;28;20280;-42
2022/12/20 00:41:11;;;;;;;15.98;12.38;;;;;;;5.17;100.00;101111.09;4976148;28;20700;-43
2022/12/20 00:43:38;;;;;;;15.38;13.50;;;;;;;5.14;100.00;101090.78;4985114;28;20193;-42
2022/12/20 00:46:04;;;;;;;14.23;12.73;;;;;;;5.14;100.00;101084.59;4977119;28;20256;-43
2022/12/20 00:48:32;;;;;;;14.23;12.57;;;;;;;5.18;100.00;101086.28;4980029;28;20281;-41
2022/12/20 00:51:00;;;;;;;20.63;12.73;;;;;;;5.17;100.00;101092.50;4980154;28;20232;-42
2022/12/20 00:53:26;;;;;;;16.27;12.68;;;;;;;5.21;100.00;101080.06;4978549;28;20253;-40
2022/12/20 00:55:51;;;;;;;17.08;12.27;;;;;;;5.16;100.00;101094.28;4981216;28;20200;-42
2022/12/20 00:58:17;;;;;;;14.52;12.63;;;;;;;5.22;100.00;101087.13;4978697;28;20166;-43
2022/12/20 01:00:42;;;;;;;14.35;12.20;;;;;;;5.20;100.00;101100.41;4984564;28;20249;-43
2022/12/20 01:03:09;;;;;;;15.45;12.45;;;;;;;5.25;100.00;101081.81;4989944;28;20595;-41
2022/12/20 01:05:34;;;;;;;16.20;12.35;;;;;;;5.26;100.00;101095.03;4982374;28;20190;-43
2022/12/20 01:08:00;;;;;;;15.68;12.05;;;;;;;5.23;100.00;101088.91;4995491;28;20185;-42
2022/12/20 01:10:26;;;;;;;15.23;11.35;;;;;;;5.29;100.00;101084.41;4990715;28;20206;-43
2022/12/20 01:12:52;;;;;;;15.02;11.80;;;;;;;5.30;100.00;101078.16;4976595;28;20206;-42
2022/12/20 01:15:18;;;;;;;14.05;11.85;;;;;;;5.34;100.00;101079.91;4981101;28;20597;-43
2022/12/20 01:17:44;;;;;;;16.63;11.38;;;;;;;5.34;100.00;101082.56;4977635;28;20661;-43
2022/12/20 01:20:10;;;;;;;17.65;11.40;;;;;;;5.40;100.00;101083.34;4985365;28;20258;-42
2022/12/20 01:22:35;;;;;;;15.00;11.70;;;;;;;5.32;100.00;101083.47;4979713;28;20213;-40
2022/12/20 01:25:01;;;;;;;15.13;10.93;;;;;;;5.41;100.00;101087.78;4981775;28;20186;-42
2022/12/20 01:27:28;;;;;;;15.68;11.95;;;;;;;5.37;100.00;101087.81;4981186;28;20280;-41
2022/12/20 01:29:54;;;;;;;13.73;12.32;;;;;;;5.40;100.00;101092.22;4980415;28;20182;-42
2022/12/20 01:32:19;;;;;;;16.15;12.05;;;;;;;5.42;100.00;101095.72;4986829;28;20216;-42
2022/12/20 01:34:45;;;;;;;16.05;11.77;;;;;;;5.39;100.00;101090.47;4975424;28;20276;-42
2022/12/20 01:37:11;;;;;;;14.60;12.00;;;;;;;5.48;100.00;101089.47;4985734;28;20181;-41
2022/12/20 01:39:36;;;;;;;14.73;11.73;;;;;;;5.49;100.00;101083.25;4976338;28;20173;-42
2022/12/20 01:42:02;;;;;;;13.35;11.13;;;;;;;5.44;100.00;101085.09;4981223;28;20202;-41
2022/12/20 01:44:27;;;;;;;16.92;11.75;;;;;;;5.49;100.00;101085.91;4982893;28;20184;-40
2022/12/20 01:46:53;;;;;;;17.08;12.13;;;;;;;5.45;100.00;101090.38;4990405;28;20182;-40
2022/12/20 01:49:24;;;;;;;16.80;11.88;;;;;;;5.45;100.00;101085.06;4980667;28;20166;-41
2022/12/20 01:52:05;;;;;;;18.70;13.27;;;;;;;5.38;100.00;101091.38;4989423;28;20192;-42
2022/12/20 01:54:35;;;;;;;17.23;13.27;;;;;;;5.40;100.00;101094.00;4982670;28;20659;-41
2022/12/20 01:57:05;;;;;;;20.45;13.20;;;;;;;5.37;100.00;101085.16;4979828;28;20655;-41
2022/12/20 01:59:35;;;;;;;17.70;14.73;;;;;;;5.41;100.00;101093.09;4981538;28;20688;-41
2022/12/20 02:02:04;;;;;;;16.23;13.23;;;;;;;5.33;100.00;101087.88;4983708;28;20226;-41
2022/12/20 02:04:30;;;;;;;18.77;13.30;;;;;;;5.33;100.00;101090.53;4990750;28;20204;-42
2022/12/20 02:06:56;;;;;;;17.13;13.55;;;;;;;5.35;100.00;101089.59;4978912;28;20330;-42
2022/12/20 02:09:22;;;;;;;17.33;13.85;;;;;;;5.38;100.00;101078.09;4980423;28;20444;-40
2022/12/20 02:12:22;;;;;;;18.83;15.38;;;;;;;5.35;100.00;101081.63;4970636;28;20233;-42
2022/12/20 02:14:57;;;;;;;16.83;13.30;;;;;;;5.33;100.00;101082.56;4959295;28;20186;-41
2022/12/20 02:17:52;;;;;;;20.20;13.90;;;;;;;5.43;100.00;101088.66;4979363;28;20497;-41
2022/12/20 02:20:18;;;;;;;19.15;14.75;;;;;;;5.34;100.00;101081.69;4983381;28;20185;-42
2022/12/20 02:23:03;;;;;;;19.30;14.90;;;;;;;5.31;100.00;101085.25;4980668;28;20684;-41
2022/12/20 02:25:41;;;;;;;18.45;14.15;;;;;;;5.31;100.00;101081.69;4978011;28;20261;-41
2022/12/20 02:28:28;;;;;;;15.00;13.40;;;;;;;5.31;100.00;101090.56;4980170;28;20178;-41
2022/12/20 02:30:57;;;;;;;16.60;14.68;;;;;;;5.35;100.00;101089.59;4978547;28;20216;-43
2022/12/20 02:33:26;;;;;;;23.02;14.57;;;;;;;5.31;100.00;101101.19;4987483;28;20664;-42
2022/12/20 02:35:51;;;;;;;19.13;14.02;;;;;;;5.33;100.00;101086.09;4979049;28;20189;-41
2022/12/20 02:38:29;;;;;;;20.63;14.75;;;;;;;5.42;100.00;101086.88;4984565;28;20181;-43
2022/12/20 02:41:11;;;;;;;18.33;13.57;;;;;;;5.35;100.00;101081.63;4983517;28;20194;-43
2022/12/20 02:46:26;;;;;;;20.63;14.45;;;;;;;5.36;100.00;101086.06;4980365;28;20642;-41
2022/12/20 02:48:59;;;;;;;18.02;14.18;;;;;;;5.39;100.00;101079.84;4979415;28;20193;-43
2022/12/20 02:51:27;;;;;;;20.70;14.30;;;;;;;5.40;100.00;101083.34;4977297;28;20273;-42
2022/12/20 02:53:55;;;;;;;18.20;13.80;;;;;;;5.43;100.00;101084.22;4984033;28;20232;-43
2022/12/20 02:56:30;;;;;;;18.33;14.45;;;;;;;5.45;100.00;101082.41;4974479;28;20201;-41
2022/12/20 02:59:09;;;;;;;15.73;13.93;;;;;;;5.49;100.00;101096.56;4983368;28;20177;-43
2022/12/20 03:01:46;;;;;;;18.73;14.13;;;;;;;5.48;100.00;101102.75;4977028;28;20709;-40
2022/12/20 03:04:13;;;;;;;16.83;12.88;;;;;;;5.46;100.00;101096.56;4997076;28;20675;-43
2022/12/20 03:06:54;;;;;;;16.55;13.52;;;;;;;5.51;100.00;101089.41;4976950;28;20173;-41
2022/12/20 03:09:20;;;;;;;22.00;15.23;;;;;;;5.51;100.00;101097.38;4987901;28;20233;-42
2022/12/20 03:11:46;;;;;;;17.58;15.07;;;;;;;5.47;100.00;101087.72;4986655;28;20642;-41
2022/12/20 03:14:12;;;;;;;22.17;15.88;;;;;;;5.50;100.00;101079.69;4985195;28;20181;-42
2022/12/20 03:16:38;;;;;;;21.80;16.77;;;;;;;5.55;100.00;101088.47;4988743;28;20560;-42
2022/12/20 03:19:05;;;;;;;25.02;17.95;;;;;;;5.46;100.00;101100.09;4986070;28;20178;-43
2022/12/20 03:21:31;;;;;;;25.45;18.75;;;;;;;5.51;100.00;101078.78;4981099;28;20726;-42
2022/12/20 03:23:56;;;;;;;22.10;18.20;;;;;;;5.48;100.00;101084.16;4997350;28;20181;-42
2022/12/20 03:26:22;;;;;;;25.40;18.75;;;;;;;5.50;100.00;101088.53;4987477;28;20183;-43
2022/12/20 03:28:53;;;;;;;23.27;18.02;;;;;;;5.49;100.00;101088.59;4975852;28;20346;-43
2022/12/20 03:31:22;;;;;;;23.42;18.92;;;;;;;5.49;100.00;101070.84;4982267;28;20465;-42
2022/12/20 03:33:51;;;;;;;25.52;19.95;;;;;;;5.51;100.00;101087.66;4976009;28;20178;-43
2022/12/20 03:36:22;;;;;;;26.52;19.70;;;;;;;5.43;100.00;101081.56;4984589;28;20274;-42
2022/12/20 03:38:49;;;;;;;25.73;20.17;;;;;;;5.45;100.00;101063.81;4974555;28;20186;-44
2022/12/20 03:41:14;;;;;;;30.48;20.92;;;;;;;5.47;100.00;101070.00;4985946;28;20205;-41
2022/12/20 03:43:40;;;;;;;30.17;21.85;;;;;;;5.45;100.00;101069.13;4979758;28;20228;-44
2022/12/20 03:46:05;;;;;;;26.80;21.83;;;;;;;5.50;100.00;101072.59;4986868;28;20261;-43
2022/12/20 03:48:36;;;;;;;26.83;20.80;;;;;;;5.50;100.00;101071.72;4977615;28;20177;-42
2022/12/20 03:51:03;;;;;;;28.08;21.90;;;;;;;5.57;100.00;101071.63;4984900;28;20323;-42
2022/12/20 03:53:28;;;;;;;28.80;21.98;;;;;;;5.57;100.00;101073.38;4990018;28;20543;-42
2022/12/20 03:55:54;;;;;;;33.78;22.60;;;;;;;5.62;100.00;101068.00;4980885;28;20213;-41
2022/12/20 03:58:20;;;;;;;31.40;22.65;;;;;;;5.57;100.00;101078.69;4974792;28;20200;-45
2022/12/20 04:00:46;;;;;;;29.50;22.15;;;;;;;5.60;100.00;101072.47;4974624;28;20653;-46
2022/12/20 04:03:31;;;;;;;30.08;21.42;;;;;;;5.60;100.00;101086.66;4990252;28;20242;-47
2022/12/20 04:05:57;;;;;;;27.15;21.00;;;;;;;5.62;100.00;101081.28;4980344;28;20282;-45
2022/12/20 04:08:22;;;;;;;29.75;22.33;;;;;;;5.56;100.00;101087.59;4976430;28;20188;-46
2022/12/20 04:13:35;;;;;;;29.80;23.20;;;;;;;5.64;100.00;101091.03;4981785;28;20777;-44
2022/12/20 04:16:02;;;;;;;32.70;22.80;;;;;;;5.54;100.00;101081.41;4981004;28;20696;-44
2022/12/20 04:18:31;;;;;;;31.08;22.15;;;;;;;5.56;100.00;101077.84;4982419;28;20170;-44
2022/12/20 04:21:02;;;;;;;34.30;21.90;;;;;;;5.66;100.00;101072.38;4972845;28;20201;-46
2022/12/20 04:23:29;;;;;;;32.70;21.95;;;;;;;5.55;100.00;101080.50;4987839;28;20208;-45
2022/12/20 04:25:55;;;;;;;30.25;21.45;;;;;;;5.58;100.00;101084.00;4980697;28;20177;-46
2022/12/20 04:28:21;;;;;;;24.88;20.90;;;;;;;5.55;100.00;101076.09;4980333;28;20268;-46
2022/12/20 04:30:48;;;;;;;27.90;21.23;;;;;;;5.55;100.00;101059.25;4981758;28;20602;-46
2022/12/20 04:33:19;;;;;;;28.38;21.02;;;;;;;5.54;100.00;101076.97;4980942;28;20184;-46
2022/12/20 04:35:44;;;;;;;28.42;21.08;;;;;;;5.57;100.00;101079.59;4982947;28;20186;-46
2022/12/20 04:38:11;;;;;;;27.60;20.17;;;;;;;5.58;100.00;101065.41;4983334;28;20212;-47
2022/12/20 04:40:37;;;;;;;28.95;19.77;;;;;;;5.59;100.00;101079.56;4974051;28;20654;-49
2022/12/20 04:43:05;;;;;;;30.33;19.27;;;;;;;5.55;100.00;101068.13;4983851;28;20365;-44
2022/12/20 04:45:31;;;;;;;27.60;20.00;;;;;;;5.60;100.00;101065.38;4984385;28;20726;-45
2022/12/20 04:47:56;;;;;;;23.02;18.45;;;;;;;5.61;100.00;101067.13;4980756;28;20616;-45
2022/12/20 04:50:31;;;;;;;25.27;19.70;;;;;;;5.64;100.00;101063.53;4983115;28;20691;-44
2022/12/20 04:55:41;;;;;;;26.83;18.88;;;;;;;5.69;100.00;101070.56;4991872;28;20181;-45
2022/12/20 04:58:06;;;;;;;22.98;18.20;;;;;;;5.71;100.00;101055.47;4991404;28;20174;-44
2022/12/20 05:00:34;;;;;;;25.13;18.52;;;;;;;5.76;100.00;101050.97;4976744;28;20661;-45
2022/12/20 05:03:08;;;;;;;28.20;16.98;;;;;;;5.81;100.00;101053.53;4977379;28;20304;-46
2022/12/20 05:05:33;;;;;;;26.35;17.75;;;;;;;5.83;100.00;101045.56;4977297;28;20233;-45
2022/12/20 05:07:59;;;;;;;23.60;17.20;;;;;;;5.90;100.00;101041.91;4979210;28;20192;-46
2022/12/20 05:10:25;;;;;;;22.10;16.55;;;;;;;5.89;100.00;101040.16;4978401;28;20213;-46
2022/12/20 05:12:53;;;;;;;24.02;17.50;;;;;;;5.92;100.00;101032.97;4969676;28;20193;-45
2022/12/20 05:15:31;;;;;;;24.98;17.15;;;;;;;5.88;100.00;101030.41;4988068;28;20200;-45
2022/12/20 05:17:58;;;;;;;20.33;16.00;;;;;;;5.89;100.00;101032.16;4984652;28;20178;-44
2022/12/20 05:20:25;;;;;;;20.42;16.45;;;;;;;5.86;100.00;101033.09;4980570;28;20182;-45
2022/12/20 05:28:33;;;;;;;21.15;16.33;;;;;;;5.94;100.00;101035.63;4987653;28;20242;-41
2022/12/20 05:30:59;;;;;;;19.75;15.63;;;;;;;5.90;100.00;101033.91;4981701;28;20696;-44
2022/12/20 05:33:25;;;;;;;22.08;16.00;;;;;;;5.97;100.00;101032.97;4983931;28;20439;-42
2022/12/20 05:35:51;;;;;;;23.05;15.15;;;;;;;5.97;100.00;101030.31;4982176;28;20265;-40
2022/12/20 05:38:17;;;;;;;17.38;15.07;;;;;;;6.03;100.00;101024.88;4980296;28;20265;-42
2022/12/20 05:40:46;;;;;;;22.42;16.58;;;;;;;6.02;100.00;101033.75;4977717;28;20553;-42
2022/12/20 05:43:11;;;;;;;25.13;16.40;;;;;;;5.98;100.00;101032.06;4982694;28;20249;-42
2022/12/20 05:45:47;;;;;;;24.58;17.58;;;;;;;6.00;100.00;101032.91;4980983;28;20186;-43
2022/12/20 05:48:16;;;;;;;20.10;16.83;;;;;;;6.02;100.00;101032.91;4978159;28;20200;-42
2022/12/20 05:50:43;;;;;;;20.90;16.33;;;;;;;5.97;100.00;101030.31;4979178;28;20689;-41
2022/12/20 05:53:25;;;;;;;23.00;18.38;;;;;;;6.03;100.00;101016.88;4982457;28;20162;-41
2022/12/20 05:55:54;;;;;;;24.92;17.95;;;;;;;6.03;100.00;101030.19;4989172;28;20211;-42
2022/12/20 05:58:25;;;;;;;23.60;19.38;;;;;;;6.02;100.00;101019.59;4985332;28;20174;-43
2022/12/20 06:01:03;;;;;;;21.08;16.08;;;;;;;6.06;100.00;101013.31;4981669;28;20209;-42
2022/12/20 06:03:32;;;;;;;21.73;16.35;;;;;;;6.04;100.00;101008.03;4980609;28;20192;-41
2022/12/20 06:05:59;;;;;;;21.80;17.65;;;;;;;6.03;100.00;101002.72;4988494;28;20197;-44
2022/12/20 06:08:28;;;;;;;25.95;17.02;;;;;;;6.07;100.00;101009.75;4978050;28;20652;-41
2022/12/20 06:10:55;;;;;;;20.50;16.65;;;;;;;6.07;100.00;101020.38;4977659;28;20706;-43
2022/12/20 06:13:22;;;;;;;23.50;17.08;;;;;;;6.06;100.00;101011.53;4984821;28;20212;-43
2022/12/20 06:15:50;;;;;;;20.17;16.88;;;;;;;6.11;100.00;101011.47;4980187;28;20194;-44
2022/12/20 06:18:17;;;;;;;19.58;16.33;;;;;;;6.14;100.00;101009.63;4980422;28;20661;-41
2022/12/20 06:20:49;;;;;;;20.75;16.10;;;;;;;6.17;100.00;101009.56;4979881;28;20188;-41
2022/12/20 06:23:16;;;;;;;20.42;16.55;;;;;;;6.11;100.00;101000.81;4977997;28;20261;-42
2022/12/20 06:25:49;;;;;;;22.00;16.52;;;;;;;6.10;100.00;101001.69;4988149;28;20181;-41
2022/12/20 06:28:20;;;;;;;23.42;16.63;;;;;;;6.09;100.00;100992.84;4977457;28;20192;-44
2022/12/20 06:30:53;;;;;;;21.92;16.45;;;;;;;6.12;100.00;101006.13;4979777;28;20699;-44
2022/12/20 06:33:30;;;;;;;19.33;15.75;;;;;;;6.16;100.00;101001.59;4976895;28;20182;-41
2022/12/20 06:35:56;;;;;;;21.60;16.48;;;;;;;6.17;100.00;100995.41;4981917;28;20197;-42
2022/12/20 06:38:22;;;;;;;20.52;16.30;;;;;;;6.22;100.00;100996.19;4988269;28;20193;-42
2022/12/20 06:40:48;;;;;;;24.73;16.98;;;;;;;6.21;100.00;100999.75;4982031;28;20177;-42
2022/12/20 06:43:13;;;;;;;22.27;16.15;;;;;;;6.27;100.00;100986.31;4984583;28;20558;-45
2022/12/20 06:45:39;;;;;;;19.75;16.35;;;;;;;6.24;100.00;100982.88;4975899;28;20178;-42
2022/12/20 06:48:05;;;;;;;20.70;15.88;;;;;;;6.25;100.00;100997.91;4980987;28;20624;-42
2022/12/20 06:50:33;;;;;;;20.75;15.82;;;;;;;6.22;100.00;100990.00;4978016;28;20206;-42
2022/12/20 06:52:59;;;;;;;21.55;16.02;;;;;;;6.23;100.00;100995.28;4981159;28;20649;-40
2022/12/20 06:55:24;;;;;;;22.88;16.65;;;;;;;6.21;100.00;101004.19;4980557;28;20190;-42
2022/12/20 06:57:50;;;;;;;22.52;15.98;;;;;;;6.23;100.00;101018.34;4980844;28;20549;-41
2022/12/20 07:00:16;;;;;;;22.85;16.25;;;;;;;6.27;100.00;101006.75;4980251;28;20174;-41
2022/12/20 07:02:42;;;;;;;24.40;16.25;;;;;;;6.27;100.00;101007.59;4978417;28;20217;-42
2022/12/20 07:05:07;;;;;;;22.65;16.27;;;;;;;6.30;100.00;101012.91;4979104;28;20568;-41
2022/12/20 07:07:33;;;;;;;23.48;16.23;;;;;;;6.35;100.00;101018.13;4977089;28;20181;-41
2022/12/20 07:09:58;;;;;;;20.33;16.40;;;;;;;6.34;100.00;101011.94;4977745;28;20709;-44
2022/12/20 07:12:24;;;;;;;20.15;15.68;;;;;;;6.38;100.00;101004.75;4981106;28;20211;-41
2022/12/20 07:14:50;;;;;;;18.58;14.80;;;;;;;6.43;100.00;101007.34;4982708;28;20224;-41
2022/12/20 07:17:16;;;;;;;24.20;15.10;;;;;;;6.46;100.00;101004.63;4976216;28;20205;-41
2022/12/20 07:19:42;;;;;;;19.08;15.18;;;;;;;6.49;100.00;101012.56;4976029;28;20174;-42
2022/12/20 07:22:07;;;;;;;17.05;14.57;;;;;;;6.55;100.00;101008.00;4978837;28;20250;-41
2022/12/20 07:24:33;;;;;;;20.58;14.70;;;;;;;6.46;100.00;101008.16;4987919;28;20732;-40
2022/12/20 07:26:59;;;;;;;22.73;14.90;;;;;;;6.47;100.00;101023.25;4977553;28;20214;-42
2022/12/20 07:29:25;;;;;;;17.00;13.18;;;;;;;6.38;100.00;101018.97;4977835;28;20193;-42
2022/12/20 07:31:51;;;;;;;19.25;13.77;;;;;;;6.44;100.00;101009.97;4987487;28;20194;-41
2022/12/20 07:34:17;;;;;;;17.02;13.63;;;;;;;6.56;100.00;101008.91;4984169;28;20187;-42
2022/12/20 07:36:42;;;;;;;19.42;13.95;;;;;;;6.56;100.00;101014.22;4977576;28;20197;-41
2022/12/20 07:39:08;;;;;;;18.55;14.07;;;;;;;6.51;100.00;101008.09;4978594;28;20244;-42
2022/12/20 07:41:33;;;;;;;20.17;14.10;;;;;;;6.55;100.00;101010.66;4986523;28;20198;-42
2022/12/20 07:44:01;;;;;;;16.05;13.88;;;;;;;6.51;100.00;101008.09;4973105;28;20178;-42
2022/12/20 07:46:27;;;;;;;19.27;14.23;;;;;;;6.51;100.00;100992.97;4982997;28;20200;-41
2022/12/20 07:48:52;;;;;;;17.80;13.85;;;;;;;6.50;100.00;101004.56;4988754;28;20181;-43
2022/12/20 07:51:32;;;;;;;18.02;13.32;;;;;;;6.53;100.00;100995.63;4977920;28;20465;-46
2022/12/20 07:54:05;;;;;;;15.82;13.70;;;;;;;6.53;100.00;100992.97;4985874;28;20184;-44
2022/12/20 07:56:35;;;;;;;19.20;14.63;;;;;;;6.58;100.00;100991.06;4980175;28;20265;-43
2022/12/20 07:59:01;;;;;;;18.92;15.25;;;;;;;6.56;100.00;101000.91;4976819;28;20678;-47
2022/12/20 08:01:29;;;;;;;20.10;13.95;;;;;;;6.65;100.00;101000.72;4979645;28;20284;-42
2022/12/20 08:04:04;;;;;;;18.65;14.52;;;;;;;6.61;100.00;101007.00;4978349;28;20182;-45
2022/12/20 08:06:31;;;;;;;20.70;15.45;;;;;;;6.62;100.00;101007.88;4980670;28;20189;-47
2022/12/20 08:09:02;;;;;;;20.88;15.68;;;;;;;6.60;100.00;100997.25;4975565;28;20529;-41
2022/12/20 08:11:29;;;;;;;18.38;15.50;;;;;;;6.69;100.00;100982.88;4982211;28;20629;-42
2022/12/20 08:13:55;;;;;;;24.25;16.95;;;;;;;6.69;100.00;100990.88;4983879;28;20190;-46
2022/12/20 08:16:21;;;;;;;19.58;16.13;;;;;;;6.71;100.00;100987.28;4986176;28;20648;-42
2022/12/20 08:18:46;;;;;;;21.88;16.80;;;;;;;6.69;100.00;100980.22;5013888;28;20223;-43
2022/12/20 08:21:13;;;;;;;27.92;18.25;;;;;;;6.79;100.00;100990.66;5014014;28;20199;-48
2022/12/20 08:23:39;;;;;;;19.08;17.05;;;;;;;6.76;100.00;100987.19;5014326;28;20172;-45
2022/12/20 08:26:05;;;;;;;27.30;18.38;;;;;;;6.83;100.00;100994.16;5014400;28;20227;-45
2022/12/20 08:28:30;;;;;;;21.67;18.98;;;;;;;6.80;100.00;100991.56;5013793;28;20172;-42
2022/12/20 08:31:00;;;;;;;25.17;18.95;;;;;;;6.79;100.00;100990.66;5013894;28;20250;-44
2022/12/20 08:33:26;;;;;;;25.88;19.25;;;;;;;6.84;100.00;100987.03;5013819;28;20550;-45
2022/12/20 08:36:04;;;;;;;31.42;20.70;;;;;;;6.84;100.00;100982.56;5014059;28;20173;-43
2022/12/20 08:38:30;;;;;;;26.92;20.02;;;;;;;6.86;100.00;100988.75;5013817;28;20195;-45
2022/12/20 08:41:01;;;;;;;25.85;20.58;;;;;;;6.87;100.00;100984.31;5013784;28;20672;-44
2022/12/20 08:43:26;;;;;;;28.17;20.67;;;;;;;6.91;100.00;100981.56;5012542;28;20164;-43
2022/12/20 08:45:54;;;;;;;28.58;21.35;;;;;;;6.90;100.00;100963.81;5014172;28;20198;-43
2022/12/20 08:48:20;;;;;;;25.75;20.02;;;;;;;6.99;100.00;100970.72;5013380;28;20165;-45
2022/12/20 08:50:47;;;;;;;25.35;20.42;;;;;;;7.08;100.00;100964.34;5013750;28;20275;-43
2022/12/20 08:53:12;;;;;;;23.20;19.92;;;;;;;7.08;100.00;100956.34;5013356;28;20219;-44
2022/12/20 08:55:38;;;;;;;26.30;19.75;;;;;;;7.07;100.00;100958.13;5013802;28;20192;-46
2022/12/20 08:58:03;;;;;;;26.65;19.27;;;;;;;7.09;100.00;100966.97;5013747;28;20498;-43
2022/12/20 09:00:28;;;;;;;25.98;18.83;;;;;;;7.18;100.00;100968.56;5013259;28;20196;-43
2022/12/20 09:02:54;;;;;;;24.30;17.92;;;;;;;7.11;100.00;100967.81;5013499;28;20612;-49
2022/12/20 09:05:20;;;;;;;21.55;18.02;;;;;;;7.17;100.00;100973.03;5012547;28;20267;-43
2022/12/20 09:07:45;;;;;;;22.55;18.25;;;;;;;7.17;100.00;100964.13;5012470;28;20169;-44
2022/12/20 09:10:12;;;;;;;21.83;17.25;;;;;;;7.21;100.00;100965.81;5012510;28;20211;-46
2022/12/20 09:12:38;;;;;;;26.58;17.55;;;;;;;7.23;100.00;100958.66;5012054;28;20675;-45
2022/12/20 09:15:04;;;;;;;20.33;16.95;;;;;;;7.28;100.00;100963.88;5010845;28;20172;-45
2022/12/20 09:17:30;;;;;;;18.73;15.88;;;;;;;7.26;100.00;100971.94;5013206;28;20173;-46
2022/12/20 09:19:56;;;;;;;21.70;16.38;;;;;;;7.27;100.00;100970.16;5013019;28;20199;-44
2022/12/20 09:22:21;;;;;;;17.60;15.57;;;;;;;7.29;100.00;100981.66;5012216;28;20181;-43
2022/12/20 09:24:48;;;;;;;19.27;15.32;;;;;;;7.34;100.00;100969.09;5013225;28;20173;-46
2022/12/20 09:27:13;;;;;;;18.05;14.60;;;;;;;7.37;100.00;100972.56;5012875;28;20506;-46
2022/12/20 09:29:39;;;;;;;19.50;14.43;;;;;;;7.36;100.00;100960.13;5013066;28;20173;-42
2022/12/20 09:32:05;;;;;;;16.85;13.38;;;;;;;7.37;100.00;100977.91;5012771;28;20192;-43
2022/12/20 09:34:30;;;;;;;13.55;12.13;;;;;;;7.40;100.00;100971.63;5012481;28;20215;-43
2022/12/20 09:36:56;;;;;;;13.40;11.60;;;;;;;7.39;100.00;100962.75;5012736;28;20251;-45
2022/12/20 09:39:21;;;;;;;14.40;12.52;;;;;;;7.49;100.00;100957.19;5012861;28;20160;-43
2022/12/20 09:41:47;;;;;;;13.45;12.07;;;;;;;7.45;100.00;100968.84;5012273;28;20200;-43
2022/12/20 09:44:18;;;;;;;13.48;11.32;;;;;;;7.43;100.00;100958.22;5013014;28;20188;-44
2022/12/20 09:46:51;;;;;;;12.60;10.63;;;;;;;7.45;100.00;100953.72;5012792;28;20199;-43
2022/12/20 09:49:18;;;;;;;12.35;11.00;;;;;;;7.46;100.00;100947.50;5012341;28;20581;-44
2022/12/20 09:52:05;;;;;;;13.77;10.93;;;;;;;7.46;100.00;100951.94;5012526;28;20208;-43
2022/12/20 09:54:41;;;;;;;14.50;10.38;;;;;;;7.52;100.00;100954.44;5012389;28;20172;-43
2022/12/20 09:57:34;;;;;;;13.32;10.23;;;;;;;7.51;100.00;100950.91;5011410;28;20165;-45
2022/12/20 10:00:00;;;;;;;13.50;10.52;;;;;;;7.51;100.00;100952.72;5012343;28;20243;-42
2022/12/20 10:02:29;;;;;;;12.75;10.02;;;;;;;7.59;100.00;100935.63;5011606;28;20638;-45
2022/12/20 10:04:54;;;;;;;13.30;10.10;;;;;;;7.50;100.00;100958.94;5012391;28;20185;-48
2022/12/20 10:07:57;;;;;;;11.65;9.80;;;;;;;7.58;100.00;100948.97;5012115;28;20183;-46
2022/12/20 10:10:53;;;;;;;10.00;8.90;;;;;;;7.60;100.00;100947.16;4981053;28;20258;-46
2022/12/20 10:13:36;;;;;;;11.70;9.13;;;;;;;7.63;100.00;100941.72;5012178;28;20166;-48
2022/12/20 10:16:45;;;;;;;14.07;10.07;;;;;;;7.64;100.00;100932.84;5012046;28;20558;-43
2022/12/20 10:19:19;;;;;;;14.02;11.13;;;;;;;7.66;100.00;100927.47;5011791;28;20176;-44
2022/12/20 10:22:05;;;;;;;33.90;26.17;;;;;;;7.73;100.00;100927.28;4972584;28;20182;-42
2022/12/20 10:24:33;;;;;;;14.18;9.95;;;;;;;7.75;100.00;100929.91;4973126;28;20457;-44
2022/12/20 10:27:13;;;;;;;11.43;10.05;;;;;;;7.80;100.00;100915.53;4972484;28;20177;-42
2022/12/20 10:29:39;;;;;;;10.45;8.43;;;;;;;7.77;100.00;100920.06;4972778;28;20573;-44
2022/12/20 10:32:12;;;;;;;14.10;10.25;;;;;;;7.73;100.00;100919.25;4972764;28;20687;-44
2022/12/20 10:34:39;;;;;;;13.00;9.88;;;;;;;7.77;100.00;100902.28;4972539;28;20177;-47
2022/12/20 10:37:17;;;;;;;13.23;9.73;;;;;;;7.77;100.00;100904.94;4972920;28;20709;-44
2022/12/20 10:39:47;;;;;;;12.45;10.25;;;;;;;7.80;100.00;100907.53;4972449;28;20182;-46
2022/12/20 10:42:26;;;;;;;11.10;9.93;;;;;;;7.74;100.00;100898.81;4986238;28;20201;-48
2022/12/20 10:44:53;;;;;;;12.48;10.30;;;;;;;7.77;100.00;100896.94;4992105;28;20173;-43
2022/12/20 10:47:40;;;;;;;12.15;10.52;;;;;;;7.71;100.00;100885.56;4992003;28;20192;-48
2022/12/20 10:50:17;;;;;;;11.73;10.20;;;;;;;7.69;100.00;100872.25;4992041;28;20181;-42
2022/12/20 10:52:45;;;;;;;15.80;11.02;;;;;;;7.71;100.00;100873.09;4991597;28;20200;-44
2022/12/20 10:55:49;;;;;;;12.82;11.52;;;;;;;7.73;100.00;100863.25;4991908;28;20545;-46
2022/12/20 10:58:29;;;;;;;13.13;11.00;;;;;;;7.78;100.00;100871.13;4970103;28;20190;-41
2022/12/20 11:01:17;;;;;;;14.25;11.35;;;;;;;7.79;100.00;100867.56;4970361;28;20551;-46
2022/12/20 11:03:48;;;;;;;13.02;11.05;;;;;;;7.74;100.00;100875.69;4985711;28;20549;-44
2022/12/20 11:06:16;;;;;;;15.27;11.75;;;;;;;7.76;100.00;100880.97;4991461;28;20232;-44
2022/12/20 11:08:41;;;;;;;13.20;11.50;;;;;;;7.79;100.00;100864.91;4991589;28;20252;-45
2022/12/20 11:11:17;;;;;;;14.32;12.35;;;;;;;7.77;100.00;100869.41;4991051;28;20293;-43
2022/12/20 11:13:44;;;;;;;13.82;12.02;;;;;;;7.75;100.00;100872.09;4991392;28;20168;-42
2022/12/20 11:16:34;;;;;;;15.57;12.68;;;;;;;7.72;100.00;100872.19;4991411;28;20166;-47
2022/12/20 11:19:00;;;;;;;14.15;12.65;;;;;;;7.71;100.00;100859.75;4991285;28;20847;-44
2022/12/20 11:21:53;;;;;;;19.13;13.32;;;;;;;7.75;100.00;100849.91;4991439;28;20201;-43
2022/12/20 11:24:37;;;;;;;15.20;12.73;;;;;;;7.74;100.00;100854.38;4990799;28;20518;-44
2022/12/20 11:27:22;;;;;;;16.60;13.75;;;;;;;7.77;100.00;100850.72;4991340;28;20264;-44
2022/12/20 11:30:17;;;;;;;17.40;14.20;;;;;;;7.80;100.00;100835.50;4991154;28;20186;-43
2022/12/20 11:33:01;;;;;;;15.38;13.77;;;;;;;7.80;100.00;100840.84;4982363;28;20290;-44
2022/12/20 11:36:00;;;;;;;16.67;13.50;;;;;;;7.85;100.00;100835.41;4991315;28;20578;-45